Time;durP1;ratioP1;P1;durP2;ratioP2;P2;SDS_P1;SDS_P2;PMS_P1;PMS_P2;Temp;Humidity;BMP_temperature;BMP_pressure;BME280_temperature;BME280_humidity;BME280_pressure;Samples;Min_cycle;Max_cycle;Signal;HPM_P1;HPM_P2
2022/11/20 00:01:27;;;;;;;10.55;5.78;;;0.60;99.90;;;;;;6128313;19;20272;-70
2022/11/20 00:03:32;;;;;;;9.40;5.88;;;;;;;;;;6127941;19;19925;-70
2022/11/20 00:05:36;;;;;;;9.88;5.75;;;;;;;;;;6127594;19;19923;-70
2022/11/20 00:07:40;;;;;;;11.70;5.72;;;1.10;99.90;;;;;;6127635;19;20251;-70
2022/11/20 00:09:45;;;;;;;10.68;6.00;;;0.90;99.90;;;;;;6127563;19;19911;-70
2022/11/20 00:11:49;;;;;;;13.10;6.20;;;0.60;99.90;;;;;;6128179;19;19915;-69
2022/11/20 00:13:56;;;;;;;12.40;6.43;;;0.60;99.90;;;;;;6126379;19;19921;-70
2022/11/20 00:16:01;;;;;;;10.77;5.72;;;0.80;99.90;;;;;;6127521;19;19935;-70
2022/11/20 00:18:08;;;;;;;11.32;5.28;;;0.90;99.90;;;;;;6127907;19;19922;-70
2022/11/20 00:20:13;;;;;;;10.02;5.45;;;;;;;;;;6127492;19;19936;-70
2022/11/20 00:22:17;;;;;;;10.15;5.30;;;1.20;99.90;;;;;;6127855;19;20004;-70
2022/11/20 00:24:21;;;;;;;11.07;5.50;;;0.60;99.90;;;;;;6127603;19;19915;-70
2022/11/20 00:26:26;;;;;;;11.52;5.43;;;;;;;;;;6127384;19;20320;-69
2022/11/20 00:28:31;;;;;;;9.45;4.60;;;1.10;99.90;;;;;;6127641;19;19915;-69
2022/11/20 00:30:35;;;;;;;10.07;4.90;;;0.80;99.90;;;;;;6127608;19;20431;-70
2022/11/20 00:32:39;;;;;;;12.63;5.65;;;;;;;;;;6128456;19;19941;-70
2022/11/20 00:34:46;;;;;;;8.57;5.80;;;1.30;99.90;;;;;;6127611;19;19918;-70
2022/11/20 00:36:49;;;;;;;9.65;5.32;;;0.90;99.90;;;;;;6128242;19;20324;-70
2022/11/20 00:38:54;;;;;;;11.35;5.55;;;;;;;;;;6127244;19;19925;-69
2022/11/20 00:41:00;;;;;;;12.75;6.40;;;;;;;;;;6125331;19;19919;-70
2022/11/20 00:43:04;;;;;;;10.43;5.60;;;;;;;;;;6126967;19;19925;-69
2022/11/20 00:45:09;;;;;;;10.75;5.45;;;1.00;99.90;;;;;;6127100;19;20596;-70
2022/11/20 00:47:13;;;;;;;13.20;5.40;;;0.70;99.90;;;;;;6127104;19;20340;-70
2022/11/20 00:49:17;;;;;;;10.50;5.45;;;;;;;;;;6126860;19;19914;-70
2022/11/20 00:51:25;;;;;;;9.63;5.47;;;1.10;99.90;;;;;;6125075;19;19919;-69
2022/11/20 00:53:32;;;;;;;13.35;5.68;;;;;;;;;;6125717;19;19922;-70
2022/11/20 00:55:36;;;;;;;12.57;5.55;;;;;;;;;;6126222;19;19923;-70
2022/11/20 00:57:40;;;;;;;10.35;5.38;;;1.20;99.90;;;;;;6126469;19;19923;-71
2022/11/20 00:59:44;;;;;;;10.23;4.97;;;;;;;;;;6126520;19;19933;-70
2022/11/20 01:01:48;;;;;;;10.50;4.45;;;1.10;99.90;;;;;;6126745;19;19931;-70
2022/11/20 01:03:53;;;;;;;8.25;5.00;;;0.70;99.90;;;;;;6127398;19;20408;-70
2022/11/20 01:06:01;;;;;;;7.65;4.22;;;0.90;99.90;;;;;;6126362;19;20305;-70
2022/11/20 01:08:08;;;;;;;11.20;5.10;;;0.90;99.90;;;;;;6130774;19;19919;-70
2022/11/20 01:10:12;;;;;;;9.80;4.43;;;1.30;99.90;;;;;;6130954;19;19911;-70
2022/11/20 01:12:16;;;;;;;8.88;4.68;;;1.00;99.90;;;;;;6129342;19;19923;-70
2022/11/20 01:14:22;;;;;;;11.20;5.07;;;;;;;;;;6125074;19;19918;-70
2022/11/20 01:16:28;;;;;;;6.45;3.97;;;0.50;99.90;;;;;;6126583;19;20256;-70
2022/11/20 01:18:43;;;;;;;11.40;4.70;;;1.00;99.90;;;;;;6125928;19;20001;-70
2022/11/20 01:20:47;;;;;;;8.75;4.78;;;0.50;99.90;;;;;;6126167;19;20376;-70
2022/11/20 01:22:51;;;;;;;5.90;4.05;;;1.20;99.90;;;;;;6126068;19;19923;-70
2022/11/20 01:24:57;;;;;;;8.38;5.05;;;0.90;99.90;;;;;;6125992;19;19982;-70
2022/11/20 01:27:02;;;;;;;13.50;5.82;;;0.60;99.90;;;;;;6125490;19;19974;-70
2022/11/20 01:29:06;;;;;;;11.38;5.15;;;;;;;;;;6125953;19;20340;-70
2022/11/20 01:31:15;;;;;;;11.60;5.63;;;;;;;;;;6127360;19;19915;-70
2022/11/20 01:33:19;;;;;;;9.35;4.72;;;;;;;;;;6125255;19;19974;-70
2022/11/20 01:35:24;;;;;;;10.20;5.32;;;1.20;99.90;;;;;;6125571;19;19918;-70
2022/11/20 01:37:28;;;;;;;9.73;5.40;;;0.80;99.90;;;;;;6126029;19;19924;-70
2022/11/20 01:39:32;;;;;;;8.43;4.78;;;1.10;99.90;;;;;;6125551;19;19919;-70
2022/11/20 01:43:56;;;;;;;12.02;5.53;;;1.10;99.90;;;;;;6125436;19;20359;-70
2022/11/20 01:46:07;;;;;;;11.88;5.65;;;0.90;99.90;;;;;;6125183;19;19911;-70
2022/11/20 01:48:11;;;;;;;9.85;5.05;;;0.70;99.90;;;;;;6125394;19;20405;-70
2022/11/20 01:50:19;;;;;;;9.98;4.88;;;0.90;99.90;;;;;;6125053;19;19915;-70
2022/11/20 01:52:25;;;;;;;9.35;4.82;;;;;;;;;;6125439;19;19974;-70
2022/11/20 01:54:35;;;;;;;10.40;5.30;;;0.80;99.90;;;;;;6128424;19;19915;-70
2022/11/20 01:56:45;;;;;;;10.55;5.13;;;0.90;99.90;;;;;;6130212;19;20253;-70
2022/11/20 01:58:53;;;;;;;12.20;5.35;;;0.90;99.90;;;;;;6129053;19;19919;-70
2022/11/20 02:00:57;;;;;;;9.82;5.25;;;0.80;99.90;;;;;;6130870;19;19921;-70
2022/11/20 02:03:05;;;;;;;9.65;5.43;;;;;;;;;;6130668;19;20367;-70
2022/11/20 02:05:19;;;;;;;8.95;5.00;;;0.90;99.90;;;;;;6130493;19;19921;-70
2022/11/20 02:07:26;;;;;;;8.27;4.90;;;;;;;;;;6130465;19;20291;-70
2022/11/20 02:09:30;;;;;;;13.18;6.35;;;1.20;99.90;;;;;;6130545;19;19939;-70
2022/11/20 02:11:34;;;;;;;11.30;5.47;;;;;;;;;;6130196;19;19918;-70
2022/11/20 02:13:45;;;;;;;12.65;5.15;;;;;;;;;;6129151;19;19978;-70
2022/11/20 02:15:49;;;;;;;9.52;4.93;;;0.90;99.90;;;;;;6130269;19;19922;-70
2022/11/20 02:17:53;;;;;;;10.23;5.78;;;1.10;99.90;;;;;;6130079;19;20505;-70
2022/11/20 02:19:58;;;;;;;9.82;5.38;;;0.40;99.90;;;;;;6130282;19;19915;-70
2022/11/20 02:22:08;;;;;;;9.40;5.32;;;0.80;99.90;;;;;;6130490;19;19943;-70
2022/11/20 02:24:17;;;;;;;13.00;5.68;;;0.90;99.90;;;;;;6129880;19;19915;-70
2022/11/20 02:26:24;;;;;;;9.38;6.07;;;0.90;99.90;;;;;;6129849;19;19917;-70
2022/11/20 02:28:28;;;;;;;9.13;5.35;;;;;;;;;;6130151;19;19915;-70
2022/11/20 02:30:32;;;;;;;12.90;5.93;;;1.10;99.90;;;;;;6132820;19;19925;-70
2022/11/20 02:32:38;;;;;;;11.88;5.82;;;0.70;99.90;;;;;;6130311;19;19951;-70
2022/11/20 02:34:42;;;;;;;10.60;5.50;;;0.80;99.90;;;;;;6126201;19;19933;-70
2022/11/20 02:36:47;;;;;;;13.18;5.55;;;0.70;99.90;;;;;;6130288;19;19938;-70
2022/11/20 02:38:51;;;;;;;10.73;5.72;;;;;;;;;;6130045;19;19940;-70
2022/11/20 02:40:58;;;;;;;10.60;5.32;;;0.90;99.90;;;;;;6130031;19;19918;-70
2022/11/20 02:43:02;;;;;;;9.57;5.47;;;0.60;99.90;;;;;;6130021;19;19911;-70
2022/11/20 02:45:07;;;;;;;9.75;5.68;;;0.40;99.90;;;;;;6129663;19;19932;-69
2022/11/20 02:47:11;;;;;;;9.77;5.20;;;1.00;99.90;;;;;;6129692;19;19925;-70
2022/11/20 02:49:16;;;;;;;11.60;5.40;;;;;;;;;;6129934;19;19922;-69
2022/11/20 02:51:20;;;;;;;11.38;5.68;;;1.00;99.90;;;;;;6130025;19;20659;-69
2022/11/20 02:53:24;;;;;;;11.27;5.63;;;1.10;99.90;;;;;;6129367;19;19995;-70
2022/11/20 02:55:29;;;;;;;11.82;5.53;;;;;;;;;;6127809;19;20266;-70
2022/11/20 02:57:36;;;;;;;10.13;5.03;;;;;;;;;;6129733;19;19918;-69
2022/11/20 02:59:41;;;;;;;13.32;6.25;;;;;;;;;;6129253;19;19911;-70
2022/11/20 03:01:44;;;;;;;9.90;5.40;;;0.40;99.90;;;;;;6129419;19;19910;-70
2022/11/20 03:03:49;;;;;;;12.43;5.35;;;;;;;;;;6128529;19;19922;-70
2022/11/20 03:05:54;;;;;;;12.00;6.00;;;;;;;;;;6128299;19;19915;-69
2022/11/20 03:07:59;;;;;;;11.43;5.10;;;0.20;99.90;;;;;;6129372;19;19917;-70
2022/11/20 03:10:03;;;;;;;11.27;5.75;;;0.70;99.90;;;;;;6127292;19;19918;-70
2022/11/20 03:12:08;;;;;;;9.70;5.25;;;0.30;99.90;;;;;;6128767;19;19915;-70
2022/11/20 03:14:15;;;;;;;9.90;6.00;;;;;;;;;;6128193;19;19929;-70
2022/11/20 03:16:20;;;;;;;11.23;6.28;;;;;;;;;;6129153;19;19919;-69
2022/11/20 03:18:24;;;;;;;12.02;5.97;;;0.30;99.90;;;;;;6127515;19;19923;-70
2022/11/20 03:20:28;;;;;;;12.55;5.88;;;;;;;;;;6128746;19;19922;-70
2022/11/20 03:22:33;;;;;;;13.15;6.75;;;;;;;;;;6128889;19;19918;-70
2022/11/20 03:24:37;;;;;;;11.30;5.78;;;0.30;99.90;;;;;;6129354;19;20720;-70
2022/11/20 03:26:42;;;;;;;14.25;6.25;;;0.90;99.90;;;;;;6128307;19;19918;-70
2022/11/20 03:28:50;;;;;;;12.38;6.18;;;0.80;99.90;;;;;;6131264;19;19929;-70
2022/11/20 03:30:56;;;;;;;10.25;5.03;;;0.90;99.90;;;;;;6128745;19;19932;-70
2022/11/20 03:33:01;;;;;;;9.05;5.45;;;0.40;99.90;;;;;;6128421;19;19931;-69
2022/11/20 03:35:05;;;;;;;11.50;5.40;;;0.40;99.90;;;;;;6126779;19;19927;-70
2022/11/20 03:37:10;;;;;;;10.50;5.68;;;0.50;99.90;;;;;;6128860;19;20374;-70
2022/11/20 03:39:14;;;;;;;8.90;5.75;;;;;;;;;;6128460;19;19915;-69
2022/11/20 03:41:20;;;;;;;9.25;5.85;;;0.60;99.90;;;;;;6128385;19;19915;-70
2022/11/20 03:43:22;;;;;;;8.43;5.35;;;;;;;;;;6128479;19;19914;-70
2022/11/20 03:45:27;;;;;;;11.48;5.18;;;0.70;99.90;;;;;;6128467;19;19943;-70
2022/11/20 03:47:34;;;;;;;12.68;5.45;;;0.90;99.90;;;;;;6126486;19;19911;-70
2022/11/20 03:49:38;;;;;;;9.35;5.18;;;0.40;99.90;;;;;;6128438;19;19915;-70
2022/11/20 03:51:43;;;;;;;9.63;4.72;;;1.00;99.90;;;;;;6129141;19;19918;-70
2022/11/20 03:53:48;;;;;;;9.93;5.47;;;0.80;99.90;;;;;;6127688;19;19915;-70
2022/11/20 03:55:53;;;;;;;10.80;5.20;;;0.50;99.90;;;;;;6125817;19;19927;-70
2022/11/20 03:57:58;;;;;;;7.78;5.07;;;;;;;;;;6127757;19;20367;-70
2022/11/20 04:00:02;;;;;;;10.55;5.43;;;;;;;;;;6127881;19;19910;-69
2022/11/20 04:02:06;;;;;;;9.75;5.68;;;;;;;;;;6128309;19;19962;-70
2022/11/20 04:04:13;;;;;;;12.23;5.68;;;0.80;99.90;;;;;;6128207;19;19915;-70
2022/11/20 04:06:18;;;;;;;9.13;5.30;;;;;;;;;;6126844;19;19922;-70
2022/11/20 04:08:22;;;;;;;9.68;5.50;;;0.70;99.90;;;;;;6128147;19;19930;-70
2022/11/20 04:10:27;;;;;;;10.02;5.35;;;1.10;99.90;;;;;;6128474;19;19914;-70
2022/11/20 04:12:35;;;;;;;11.30;5.53;;;0.80;99.90;;;;;;6128266;19;19914;-70
2022/11/20 04:14:38;;;;;;;9.95;5.20;;;1.40;99.90;;;;;;6124697;19;19910;-70
2022/11/20 04:16:43;;;;;;;10.90;5.47;;;;;;;;;;6128059;19;19918;-70
2022/11/20 04:18:47;;;;;;;10.82;5.57;;;1.10;99.90;;;;;;6132110;19;19914;-70
2022/11/20 04:20:55;;;;;;;8.52;4.72;;;0.90;99.90;;;;;;6131898;19;19943;-70
2022/11/20 04:22:59;;;;;;;8.57;4.90;;;;;;;;;;6129305;19;19985;-70
2022/11/20 04:25:03;;;;;;;12.27;5.45;;;0.80;99.90;;;;;;6127972;19;20496;-70
2022/11/20 04:27:07;;;;;;;12.15;6.05;;;;;;;;;;6128079;19;20268;-70
2022/11/20 04:29:13;;;;;;;11.00;5.45;;;;;;;;;;6127246;19;19919;-70
2022/11/20 04:31:18;;;;;;;10.10;5.18;;;1.00;99.90;;;;;;6127243;19;19918;-70
2022/11/20 04:33:22;;;;;;;11.25;5.22;;;1.20;99.90;;;;;;6127712;19;19927;-70
2022/11/20 04:35:27;;;;;;;11.68;5.50;;;;;;;;;;6125917;19;19939;-70
2022/11/20 04:37:34;;;;;;;12.80;5.90;;;0.90;99.90;;;;;;6127185;19;19935;-70
2022/11/20 04:39:38;;;;;;;11.40;6.07;;;;;;;;;;6127206;19;19918;-70
2022/11/20 04:41:42;;;;;;;10.32;6.07;;;;;;;;;;6127010;19;20376;-70
2022/11/20 04:43:50;;;;;;;11.15;5.32;;;1.00;99.90;;;;;;6126885;19;19915;-70
2022/11/20 04:45:55;;;;;;;9.63;5.05;;;1.00;99.90;;;;;;6126905;19;19914;-71
2022/11/20 04:47:59;;;;;;;9.80;5.63;;;;;;;;;;6127711;19;19932;-70
2022/11/20 04:50:03;;;;;;;8.95;4.75;;;0.80;99.90;;;;;;6127093;19;20351;-70
2022/11/20 04:52:08;;;;;;;11.55;5.90;;;;;;;;;;6127102;19;19929;-69
2022/11/20 04:54:16;;;;;;;9.68;5.40;;;0.90;99.90;;;;;;6126113;19;19950;-70
2022/11/20 04:56:20;;;;;;;12.13;5.78;;;1.10;99.90;;;;;;6126435;19;19938;-70
2022/11/20 04:58:25;;;;;;;11.43;5.07;;;0.80;99.90;;;;;;6126658;19;19920;-68
2022/11/20 05:00:29;;;;;;;8.93;5.25;;;1.00;99.90;;;;;;6126561;19;19914;-70
2022/11/20 05:02:34;;;;;;;9.00;5.20;;;0.60;99.90;;;;;;6126598;19;19919;-70
2022/11/20 05:04:39;;;;;;;10.23;4.80;;;;;;;;;;6126431;19;19970;-70
2022/11/20 05:06:45;;;;;;;10.98;5.60;;;1.00;99.90;;;;;;6125767;19;19922;-70
2022/11/20 05:08:49;;;;;;;11.23;5.00;;;0.50;99.90;;;;;;6126517;19;19982;-69
2022/11/20 05:10:55;;;;;;;10.07;4.65;;;0.90;99.90;;;;;;6126655;19;19978;-69
2022/11/20 05:13:00;;;;;;;10.30;4.45;;;0.90;99.90;;;;;;6126061;19;19931;-70
2022/11/20 05:15:04;;;;;;;11.05;4.90;;;1.00;99.90;;;;;;6125594;19;19928;-69
2022/11/20 05:17:08;;;;;;;10.52;5.53;;;0.60;99.90;;;;;;6126634;19;20317;-69
2022/11/20 05:19:12;;;;;;;8.02;5.15;;;;;;;;;;6126496;19;19922;-69
2022/11/20 05:21:17;;;;;;;9.45;5.50;;;1.10;99.90;;;;;;6125944;19;19915;-69
2022/11/20 05:23:21;;;;;;;10.15;5.03;;;0.60;99.90;;;;;;6125902;19;19942;-70
2022/11/20 05:25:25;;;;;;;10.73;5.13;;;0.80;99.90;;;;;;6126462;19;20282;-70
2022/11/20 05:27:32;;;;;;;11.35;5.00;;;0.80;99.90;;;;;;6125558;19;20289;-70
2022/11/20 05:29:36;;;;;;;11.13;5.40;;;1.40;99.90;;;;;;6126121;19;19921;-69
2022/11/20 05:31:42;;;;;;;10.60;5.28;;;1.00;99.90;;;;;;6125776;19;19914;-70
2022/11/20 05:33:47;;;;;;;9.48;5.28;;;0.80;99.90;;;;;;6125756;19;19994;-70
2022/11/20 05:35:51;;;;;;;8.07;4.75;;;1.00;99.90;;;;;;6124188;19;19914;-70
2022/11/20 05:37:55;;;;;;;9.85;5.55;;;;;;;;;;6125868;19;19934;-70
2022/11/20 05:39:59;;;;;;;10.07;5.15;;;;;;;;;;6125541;19;19918;-70
2022/11/20 05:44:23;;;;;;;12.90;5.88;;;;;;;;;;6126261;19;20343;-69
2022/11/20 05:46:28;;;;;;;10.32;5.15;;;1.10;99.90;;;;;;6125394;19;20489;-70
2022/11/20 05:48:33;;;;;;;9.73;5.18;;;1.00;99.90;;;;;;6125849;19;20332;-70
2022/11/20 05:50:37;;;;;;;13.18;5.47;;;;;;;;;;6125568;19;19940;-71
2022/11/20 05:52:41;;;;;;;8.63;5.00;;;0.80;99.90;;;;;;6125876;19;19939;-70
2022/11/20 05:54:45;;;;;;;8.82;5.03;;;1.20;99.90;;;;;;6124301;19;19933;-69
2022/11/20 05:56:49;;;;;;;10.30;5.50;;;;;;;;;;6124745;19;19919;-70
2022/11/20 05:58:53;;;;;;;10.55;5.65;;;;;;;;;;6124981;19;19910;-70
2022/11/20 06:01:06;;;;;;;9.52;5.22;;;;;;;;;;6125251;19;19915;-70
2022/11/20 06:03:10;;;;;;;8.63;4.28;;;0.20;99.90;;;;;;6125020;19;20269;-70
2022/11/20 06:05:14;;;;;;;12.07;5.82;;;1.10;99.90;;;;;;6124813;19;19923;-70
2022/11/20 06:07:19;;;;;;;8.07;4.82;;;;;;;;;;6124852;19;20351;-70
2022/11/20 06:09:23;;;;;;;10.40;4.88;;;0.80;99.90;;;;;;6124968;19;19915;-70
2022/11/20 06:11:27;;;;;;;10.82;5.57;;;;;;;;;;6124767;19;19914;-70
2022/11/20 06:13:31;;;;;;;10.48;5.72;;;0.90;99.90;;;;;;6124854;19;19943;-70
2022/11/20 06:15:35;;;;;;;10.25;5.20;;;1.60;99.90;;;;;;6123600;19;19911;-71
2022/11/20 06:17:42;;;;;;;8.13;5.00;;;;;;;;;;6125383;19;20329;-70
2022/11/20 06:19:46;;;;;;;13.63;5.88;;;0.60;99.90;;;;;;6124659;19;20359;-70
2022/11/20 06:21:50;;;;;;;11.43;5.47;;;0.80;99.90;;;;;;6124547;19;19923;-70
2022/11/20 06:23:55;;;;;;;10.70;5.22;;;1.40;99.90;;;;;;6125211;19;19926;-70
2022/11/20 06:25:59;;;;;;;7.97;5.35;;;;;;;;;;6124021;19;19921;-70
2022/11/20 06:28:03;;;;;;;9.40;5.07;;;;;;;;;;6124002;19;20000;-70
2022/11/20 06:30:09;;;;;;;12.20;5.40;;;1.10;99.90;;;;;;6124361;19;19970;-70
2022/11/20 06:32:13;;;;;;;8.18;4.75;;;0.80;99.90;;;;;;6124512;19;19922;-70
2022/11/20 06:34:19;;;;;;;7.90;4.63;;;0.80;99.90;;;;;;6124578;19;19918;-70
2022/11/20 06:36:25;;;;;;;9.73;4.65;;;0.70;99.90;;;;;;6122951;19;19918;-70
2022/11/20 06:38:30;;;;;;;10.40;5.03;;;;;;;;;;6126136;19;20014;-69
2022/11/20 06:40:34;;;;;;;11.60;5.47;;;0.90;99.90;;;;;;6130068;19;19915;-70
2022/11/20 06:42:38;;;;;;;9.75;5.55;;;0.70;99.90;;;;;;6129578;19;19914;-69
2022/11/20 06:44:42;;;;;;;11.60;5.68;;;;;;;;;;6129610;19;20307;-70
2022/11/20 06:46:47;;;;;;;10.70;5.72;;;;;;;;;;6129605;19;19922;-69
2022/11/20 06:48:52;;;;;;;10.30;5.15;;;1.10;99.90;;;;;;6129863;19;20317;-70
2022/11/20 06:50:59;;;;;;;10.70;5.38;;;;;;;;;;6129873;19;20021;-70
2022/11/20 06:53:05;;;;;;;13.98;6.05;;;0.80;99.90;;;;;;6129553;19;20429;-70
2022/11/20 06:55:12;;;;;;;9.52;5.78;;;;;;;;;;6126798;19;19935;-70
2022/11/20 06:57:16;;;;;;;12.75;6.25;;;0.90;99.90;;;;;;6129092;19;19925;-69
2022/11/20 06:59:21;;;;;;;11.68;5.95;;;;;;;;;;6129521;19;19915;-71
2022/11/20 07:01:25;;;;;;;11.30;6.28;;;;;;;;;;6129654;19;20332;-70
2022/11/20 07:03:29;;;;;;;12.90;6.20;;;0.50;99.90;;;;;;6129663;19;19947;-69
2022/11/20 07:05:33;;;;;;;14.15;6.57;;;1.00;99.90;;;;;;6128908;19;19930;-69
2022/11/20 07:07:40;;;;;;;12.40;6.80;;;1.20;99.90;;;;;;6129296;19;19910;-69
2022/11/20 07:09:44;;;;;;;11.38;5.93;;;1.00;99.90;;;;;;6129463;19;20305;-70
2022/11/20 07:11:49;;;;;;;13.23;6.60;;;;;;;;;;6128990;19;19930;-70
2022/11/20 07:13:53;;;;;;;10.43;5.88;;;0.60;99.90;;;;;;6129122;19;19938;-69
2022/11/20 07:16:01;;;;;;;14.23;5.88;;;0.90;99.90;;;;;;6127746;19;20348;-69
2022/11/20 07:18:05;;;;;;;11.52;6.47;;;0.30;99.90;;;;;;6130348;19;19918;-69
2022/11/20 07:20:10;;;;;;;10.20;6.05;;;0.70;99.90;;;;;;6130118;19;19938;-69
2022/11/20 07:22:14;;;;;;;13.68;6.40;;;1.10;99.90;;;;;;6129786;19;19914;-69
2022/11/20 07:24:21;;;;;;;11.20;5.70;;;0.80;99.90;;;;;;6129036;19;19918;-70
2022/11/20 07:26:25;;;;;;;10.65;6.38;;;0.60;99.90;;;;;;6131321;19;19915;-69
2022/11/20 07:28:29;;;;;;;9.93;5.85;;;;;;;;;;6131907;19;19918;-70
2022/11/20 07:30:33;;;;;;;12.20;6.20;;;0.90;99.90;;;;;;6129428;19;19923;-71
2022/11/20 07:32:37;;;;;;;12.20;6.57;;;;;;;;;;6128717;19;19989;-70
2022/11/20 07:34:42;;;;;;;11.40;6.32;;;;;;;;;;6128596;19;20476;-71
2022/11/20 07:36:46;;;;;;;11.57;6.15;;;1.10;99.90;;;;;;6127350;19;19917;-69
2022/11/20 07:38:50;;;;;;;10.20;5.78;;;1.30;99.90;;;;;;6128785;19;19936;-71
2022/11/20 07:41:01;;;;;;;13.00;5.95;;;;;;;;;;6128877;19;19911;-70
2022/11/20 07:43:05;;;;;;;8.88;5.70;;;1.00;99.90;;;;;;6128578;19;19925;-70
2022/11/20 07:45:10;;;;;;;11.45;6.07;;;0.90;99.90;;;;;;6128301;19;19918;-70
2022/11/20 07:47:15;;;;;;;12.48;6.18;;;1.00;99.90;;;;;;6128734;19;19911;-69
2022/11/20 07:49:19;;;;;;;10.23;5.38;;;0.90;99.90;;;;;;6128463;19;19915;-70
2022/11/20 07:51:25;;;;;;;11.57;6.72;;;;;;;;;;6128589;19;19929;-69
2022/11/20 07:53:29;;;;;;;11.15;5.65;;;;;;;;;;6128891;19;19914;-70
2022/11/20 07:55:35;;;;;;;13.30;7.30;;;;;;;;;;6126582;19;20337;-70
2022/11/20 07:57:42;;;;;;;10.32;6.22;;;1.00;99.90;;;;;;6128033;19;19946;-69
2022/11/20 07:59:46;;;;;;;10.32;5.72;;;1.30;99.90;;;;;;6128043;19;19914;-70
2022/11/20 08:01:51;;;;;;;9.45;6.10;;;;;;;;;;6128359;19;19927;-70
2022/11/20 08:03:55;;;;;;;9.32;5.72;;;;;;;;;;6128476;19;19911;-70
2022/11/20 08:06:02;;;;;;;10.85;6.20;;;;;;;;;;6127469;19;19948;-70
2022/11/20 08:08:06;;;;;;;8.95;5.25;;;0.80;99.90;;;;;;6128058;19;20328;-70
2022/11/20 08:10:14;;;;;;;10.73;5.47;;;1.20;99.90;;;;;;6127550;19;19911;-70
2022/11/20 08:14:40;;;;;;;11.75;5.80;;;1.00;99.90;;;;;;6127864;19;19911;-70
2022/11/20 08:16:45;;;;;;;11.48;6.10;;;1.40;99.90;;;;;;6124818;19;19915;-70
2022/11/20 08:18:49;;;;;;;12.15;6.32;;;0.80;99.90;;;;;;6127899;19;20336;-70
2022/11/20 08:20:53;;;;;;;13.35;6.72;;;1.00;99.90;;;;;;6127882;19;20381;-70
2022/11/20 08:23:01;;;;;;;11.88;6.38;;;1.10;99.90;;;;;;6127738;19;19910;-70
2022/11/20 08:25:06;;;;;;;13.93;7.00;;;;;;;;;;6127245;19;19946;-70
2022/11/20 08:27:10;;;;;;;14.80;7.00;;;0.90;99.90;;;;;;6127602;19;19919;-70
2022/11/20 08:29:14;;;;;;;13.38;5.70;;;0.80;99.90;;;;;;6127273;19;19921;-70
2022/11/20 08:31:21;;;;;;;14.02;6.55;;;;;;;;;;6127230;19;19978;-71
2022/11/20 08:33:25;;;;;;;13.23;6.75;;;1.70;99.90;;;;;;6127835;19;19931;-70
2022/11/20 08:35:29;;;;;;;13.30;6.60;;;1.20;99.90;;;;;;6126854;19;20311;-70
2022/11/20 08:37:33;;;;;;;18.02;6.93;;;1.40;99.90;;;;;;6127605;19;19932;-70
2022/11/20 08:39:37;;;;;;;26.98;11.25;;;1.10;99.90;;;;;;6125512;19;19911;-70
2022/11/20 08:41:41;;;;;;;17.08;7.18;;;1.10;99.90;;;;;;6127071;19;19982;-70
2022/11/20 08:43:46;;;;;;;12.80;6.70;;;;;;;;;;6127029;19;19923;-70
2022/11/20 08:45:50;;;;;;;11.82;6.35;;;;;;;;;;6126968;19;20285;-71
2022/11/20 08:48:03;;;;;;;11.77;5.43;;;1.20;99.90;;;;;;6127083;19;19914;-70
2022/11/20 08:50:13;;;;;;;11.98;5.80;;;;;;;;;;6126917;19;19918;-71
2022/11/20 08:52:17;;;;;;;7.55;4.82;;;;;;;;;;6126834;19;19935;-70
2022/11/20 08:54:22;;;;;;;8.40;5.22;;;1.60;99.90;;;;;;6127403;19;19917;-70
2022/11/20 08:56:27;;;;;;;9.43;5.00;;;;;;;;;;6125368;19;19999;-70
2022/11/20 08:58:31;;;;;;;10.50;5.85;;;1.40;99.90;;;;;;6126636;19;19925;-70
2022/11/20 09:00:35;;;;;;;12.18;6.20;;;;;;;;;;6125905;19;19919;-70
2022/11/20 09:02:41;;;;;;;11.48;5.95;;;;;;;;;;6126576;19;19915;-70
2022/11/20 09:04:48;;;;;;;8.13;4.95;;;1.70;99.90;;;;;;6126609;19;19919;-70
2022/11/20 09:06:52;;;;;;;8.95;4.90;;;1.60;99.90;;;;;;6125545;19;20503;-70
2022/11/20 09:08:57;;;;;;;10.13;6.00;;;1.80;99.90;;;;;;6126461;19;20368;-70
2022/11/20 09:11:02;;;;;;;7.72;4.72;;;1.20;99.90;;;;;;6124858;19;19923;-70
2022/11/20 09:13:06;;;;;;;11.90;5.75;;;1.60;99.90;;;;;;6126686;19;19918;-70
2022/11/20 09:15:14;;;;;;;8.77;4.72;;;;;;;;;;6126972;19;19921;-70
2022/11/20 09:17:20;;;;;;;9.23;5.20;;;1.30;99.90;;;;;;6124865;19;19914;-70
2022/11/20 09:19:24;;;;;;;8.18;4.75;;;;;;;;;;6126732;19;19931;-70
2022/11/20 09:21:31;;;;;;;11.07;4.72;;;1.40;99.90;;;;;;6126616;19;19929;-70
2022/11/20 09:23:37;;;;;;;10.48;4.88;;;1.00;99.90;;;;;;6126327;19;19922;-70
2022/11/20 09:25:41;;;;;;;10.40;5.70;;;;;;;;;;6125590;19;19918;-70
2022/11/20 09:27:46;;;;;;;14.55;7.18;;;1.20;99.90;;;;;;6125650;19;19919;-70
2022/11/20 09:29:50;;;;;;;11.35;5.13;;;1.40;99.90;;;;;;6126157;19;19951;-70
2022/11/20 09:31:54;;;;;;;9.15;4.80;;;1.20;99.90;;;;;;6126363;19;20325;-71
2022/11/20 09:33:58;;;;;;;10.88;5.70;;;1.00;99.90;;;;;;6126033;19;19939;-70
2022/11/20 09:36:02;;;;;;;9.95;5.45;;;;;;;;;;6125155;19;19940;-70
2022/11/20 09:38:10;;;;;;;10.73;5.65;;;1.10;99.90;;;;;;6125958;19;19997;-70
2022/11/20 09:40:20;;;;;;;7.97;4.78;;;;;;;;;;6125598;19;19935;-69
2022/11/20 09:42:35;;;;;;;9.82;5.00;;;1.40;99.90;;;;;;6125469;19;19919;-70
2022/11/20 09:45:00;;;;;;;9.82;5.03;;;1.80;99.90;;;;;;6125620;19;19919;-71
2022/11/20 09:47:11;;;;;;;11.52;5.35;;;1.30;99.90;;;;;;6125388;19;19918;-70
2022/11/20 09:49:25;;;;;;;9.20;4.75;;;;;;;;;;6125396;19;19914;-69
2022/11/20 09:51:40;;;;;;;9.68;5.25;;;1.40;99.90;;;;;;6125624;19;19918;-70
2022/11/20 09:53:55;;;;;;;9.30;4.68;;;1.50;99.90;;;;;;6125314;19;20308;-71
2022/11/20 09:56:00;;;;;;;11.68;5.13;;;1.90;99.90;;;;;;6122110;19;19922;-70
2022/11/20 09:58:04;;;;;;;10.57;4.72;;;1.10;99.90;;;;;;6125666;19;19914;-70
2022/11/20 10:00:13;;;;;;;13.55;5.90;;;;;;;;;;6125557;19;19935;-70
2022/11/20 10:02:22;;;;;;;9.60;4.70;;;1.50;99.90;;;;;;6125096;19;19928;-70
2022/11/20 10:04:26;;;;;;;9.48;5.35;;;;;;;;;;6125078;19;19922;-70
2022/11/20 10:06:33;;;;;;;9.88;4.80;;;1.40;99.90;;;;;;6124408;19;19914;-70
2022/11/20 10:08:42;;;;;;;9.25;4.88;;;;;;;;;;6125250;19;19922;-70
2022/11/20 10:10:52;;;;;;;9.80;5.10;;;1.60;99.90;;;;;;6125378;19;19915;-70
2022/11/20 10:13:12;;;;;;;9.43;4.97;;;1.50;99.90;;;;;;6125518;19;20253;-70
2022/11/20 10:15:22;;;;;;;9.18;5.22;;;;;;;;;;6130869;19;20250;-70
2022/11/20 10:17:31;;;;;;;10.38;5.95;;;;;;;;;;6128902;19;19919;-70
2022/11/20 10:19:50;;;;;;;11.18;5.40;;;1.50;99.90;;;;;;6134014;19;19914;-70
2022/11/20 10:22:05;;;;;;;13.35;6.03;;;1.50;99.90;;;;;;6130375;19;19911;-70
2022/11/20 10:24:32;;;;;;;10.00;5.05;;;1.50;99.90;;;;;;6130149;19;19919;-70
2022/11/20 10:26:52;;;;;;;11.32;5.72;;;1.40;99.90;;;;;;6130701;19;19939;-70
2022/11/20 10:29:13;;;;;;;10.10;5.57;;;1.60;99.90;;;;;;6131481;19;19918;-70
2022/11/20 10:31:20;;;;;;;;;;;1.60;99.90;;;;;;6136035;19;19918;-70
2022/11/20 10:33:26;;;;;;;11.23;5.75;;;1.60;99.90;;;;;;6133168;19;19911;-71
2022/11/20 10:35:37;;;;;;;11.27;4.90;;;2.20;99.90;;;;;;6131057;19;19922;-69
2022/11/20 10:37:46;;;;;;;9.45;4.82;;;1.60;99.90;;;;;;6128460;19;19935;-70
2022/11/20 10:39:59;;;;;;;10.68;5.82;;;1.60;99.90;;;;;;6129956;19;19921;-70
2022/11/20 10:42:06;;;;;;;8.55;5.32;;;;;;;;;;6129810;19;19914;-70
2022/11/20 10:45:00;;;;;;;13.00;5.00;;;1.60;99.90;;;;;;6129799;19;19917;-70
2022/11/20 10:46:45;;;;;;;10.48;4.88;;;1.20;99.90;;;;;;6127849;19;19986;-69
2022/11/20 10:48:51;;;;;;;8.93;4.50;;;1.30;99.90;;;;;;6129564;19;19935;-70
2022/11/20 10:51:08;;;;;;;7.40;4.50;;;2.00;99.90;;;;;;6129471;19;20392;-70
2022/11/20 10:53:26;;;;;;;9.57;4.72;;;1.90;99.90;;;;;;6129884;19;19922;-70
2022/11/20 10:55:41;;;;;;;10.45;5.15;;;2.00;99.90;;;;;;6127867;19;19918;-70
2022/11/20 10:57:55;;;;;;;7.45;4.38;;;;;;;;;;6127876;19;19910;-70
2022/11/20 11:00:04;;;;;;;9.55;4.80;;;;;;;;;;6129213;19;19919;-69
2022/11/20 11:02:21;;;;;;;9.48;4.90;;;2.00;99.90;;;;;;6129226;19;19923;-69
2022/11/20 11:04:39;;;;;;;11.30;4.93;;;2.00;99.90;;;;;;6129156;19;19963;-69
2022/11/20 11:06:50;;;;;;;8.57;4.63;;;2.10;99.90;;;;;;6128074;19;20015;-69
2022/11/20 11:08:56;;;;;;;7.35;4.57;;;;;;;;;;6129176;19;19915;-69
2022/11/20 11:11:04;;;;;;;10.88;5.20;;;2.20;99.90;;;;;;6129227;19;19926;-69
2022/11/20 11:13:21;;;;;;;9.27;4.93;;;2.20;99.90;;;;;;6129110;19;19922;-69
2022/11/20 11:15:30;;;;;;;7.82;4.40;;;2.30;99.90;;;;;;6128934;19;20003;-70
2022/11/20 11:17:35;;;;;;;9.32;4.38;;;;;;;;;;6129815;19;19914;-69
2022/11/20 11:19:39;;;;;;;8.35;4.88;;;;;;;;;;6129406;19;19922;-69
2022/11/20 11:21:49;;;;;;;8.05;3.83;;;2.40;99.90;;;;;;6128720;19;19919;-70
2022/11/20 11:24:02;;;;;;;9.55;5.22;;;2.20;99.90;;;;;;6127890;19;19925;-70
2022/11/20 11:26:08;;;;;;;9.20;4.07;;;2.10;99.90;;;;;;6128502;19;20002;-69
2022/11/20 11:28:27;;;;;;;7.45;4.63;;;2.00;99.90;;;;;;6129246;19;19921;-70
2022/11/20 11:30:43;;;;;;;7.47;4.65;;;2.50;99.90;;;;;;6128820;19;19919;-70
2022/11/20 11:32:48;;;;;;;10.45;4.72;;;;;;;;;;6128269;19;19915;-69
2022/11/20 11:35:02;;;;;;;9.40;4.85;;;2.20;99.90;;;;;;6128280;19;19915;-70